CheckWX is a tool to help pilots better visualize weather data.  It is not intended as a substitute for an official pre-flight weather briefing.

06:06:29 UTC

LFPV TAF
Villacoublay-Vélizy (BA 107) Air Base
Villacoublay/Vélizy, France
TAF LFPV 110800Z 1109/1209 02010KT CAVOK

Jul-11@
09:00 UTC

Jul-11 @ 09:00 UTC

Jul-12@
09:00 UTC

Jul-12 @ 09:00 UTC

TAF LFPV 110800Z 1109/1209 02010KT CAVOK
Wind
  • 020° at 10 KTS
Conditions
No significant weather
Cloud Levels
  • No significant clouds